Time;durP1;ratioP1;P1;durP2;ratioP2;P2;SDS_P1;SDS_P2;PMS_P1;PMS_P2;Temp;Humidity;BMP_temperature;BMP_pressure;BME280_temperature;BME280_humidity;BME280_pressure;Samples;Min_cycle;Max_cycle;Signal;HPM_P1;HPM_P2
2021/05/26 00:01:40;;;;;;;4.05;1.83;;;;;;;9.73;52.92;99198.84;5027327;28;20080;-91
2021/05/26 00:04:08;;;;;;;6.82;2.00;;;;;;;9.68;53.40;99189.22;5028396;28;20041;-92
2021/05/26 00:06:34;;;;;;;3.17;1.58;;;;;;;9.83;49.60;99196.94;5029625;28;20037;-94
2021/05/26 00:09:00;;;;;;;4.65;1.80;;;;;;;9.63;53.38;99171.59;5026335;28;20042;-93
2021/05/26 00:11:25;;;;;;;3.80;1.70;;;;;;;9.64;53.90;99202.53;5024210;28;20037;-94
2021/05/26 00:13:51;;;;;;;2.55;1.50;;;;;;;9.45;52.77;99183.41;5027790;28;20064;-94
2021/05/26 00:16:17;;;;;;;3.90;1.48;;;;;;;9.49;53.37;99188.66;5024731;28;20041;-92
2021/05/26 00:18:43;;;;;;;3.55;1.55;;;;;;;9.55;53.70;99194.72;5028205;28;20041;-93
2021/05/26 00:21:10;;;;;;;3.53;1.65;;;;;;;9.48;55.07;99184.22;5029466;28;20045;-92
2021/05/26 00:23:37;;;;;;;3.65;1.80;;;;;;;9.48;55.39;99187.78;5026432;28;20152;-92
2021/05/26 00:26:02;;;;;;;5.15;1.77;;;;;;;9.55;55.79;99204.47;5027380;28;20073;-93
2021/05/26 00:28:28;;;;;;;5.78;1.70;;;;;;;9.51;54.54;99171.78;5027012;28;20041;-93
2021/05/26 00:30:56;;;;;;;5.40;1.70;;;;;;;9.54;55.52;99184.13;5027407;28;20038;-94
2021/05/26 00:33:22;;;;;;;3.65;1.55;;;;;;;9.35;56.28;99173.81;5030683;28;20064;-93
2021/05/26 00:35:48;;;;;;;4.15;1.52;;;;;;;9.19;55.99;99166.97;5029475;28;20042;-94
2021/05/26 00:38:16;;;;;;;3.20;1.60;;;;;;;9.17;56.80;99182.94;5023310;28;20132;-93
2021/05/26 00:40:42;;;;;;;4.22;1.90;;;;;;;9.01;56.34;99168.13;5026493;28;20091;-93
2021/05/26 00:43:08;;;;;;;3.58;1.58;;;;;;;8.99;56.99;99177.88;5027312;28;20060;-92
2021/05/26 00:45:35;;;;;;;4.18;1.67;;;;;;;9.04;57.19;99166.31;5026724;28;20483;-94
2021/05/26 00:48:01;;;;;;;2.88;1.67;;;;;;;9.10;56.93;99175.09;5028612;28;20369;-92
2021/05/26 00:50:30;;;;;;;3.40;1.90;;;;;;;9.13;56.89;99178.59;5027878;28;20120;-92
2021/05/26 00:52:57;;;;;;;3.35;1.60;;;;;;;9.01;57.54;99169.00;5024048;28;20080;-93
2021/05/26 00:55:24;;;;;;;5.00;1.60;;;;;;;9.13;53.35;99167.97;5028244;28;20069;-93
2021/05/26 00:57:51;;;;;;;3.30;1.50;;;;;;;9.27;54.07;99180.16;5029875;28;20034;-94
2021/05/26 01:00:20;;;;;;;2.55;1.40;;;;;;;9.23;54.25;99158.06;5026664;28;20491;-92
2021/05/26 01:02:46;;;;;;;3.70;1.57;;;;;;;9.22;54.97;99154.56;5027686;28;20552;-95
2021/05/26 01:05:14;;;;;;;3.38;1.75;;;;;;;9.34;57.11;99173.84;5023067;28;20275;-93
2021/05/26 01:07:40;;;;;;;3.83;1.50;;;;;;;9.28;57.64;99172.13;5022159;28;20038;-95
2021/05/26 01:10:09;;;;;;;3.55;1.60;;;;;;;9.27;55.21;99164.22;5025507;28;20081;-93
2021/05/26 01:12:36;;;;;;;5.03;1.80;;;;;;;9.05;56.28;99161.91;5022646;28;20038;-93
2021/05/26 01:15:03;;;;;;;3.10;1.52;;;;;;;9.07;56.78;99172.50;5025822;28;20049;-93
2021/05/26 01:17:29;;;;;;;2.38;1.50;;;;;;;9.21;56.36;99176.66;5026313;28;20530;-94
2021/05/26 01:19:55;;;;;;;3.55;1.60;;;;;;;9.18;57.46;99176.72;5027204;28;20046;-92
2021/05/26 01:22:22;;;;;;;3.30;1.60;;;;;;;8.99;58.51;99151.38;5029175;28;20125;-91
2021/05/26 01:24:48;;;;;;;3.28;1.65;;;;;;;8.91;58.92;99164.72;5026951;28;20121;-95
2021/05/26 01:27:14;;;;;;;4.70;1.60;;;;;;;8.90;59.62;99175.38;5030828;28;20054;-93
2021/05/26 01:29:41;;;;;;;4.22;1.65;;;;;;;8.71;58.77;99165.00;5028885;28;20517;-93
2021/05/26 01:32:07;;;;;;;3.88;1.80;;;;;;;8.80;59.79;99159.59;5029962;28;20049;-91
2021/05/26 01:34:33;;;;;;;3.65;1.55;;;;;;;8.72;61.29;99145.56;5032097;28;20037;-94
2021/05/26 01:36:59;;;;;;;6.80;1.90;;;;;;;8.77;60.62;99151.66;5032536;28;20038;-94
2021/05/26 01:39:26;;;;;;;4.22;1.50;;;;;;;8.76;60.69;99146.38;5027892;28;20041;-92
2021/05/26 01:41:52;;;;;;;3.88;1.80;;;;;;;8.62;61.85;99135.97;5027429;28;20050;-93
2021/05/26 01:44:18;;;;;;;4.28;1.60;;;;;;;8.74;61.90;99157.03;5027050;28;20107;-95
2021/05/26 01:46:44;;;;;;;3.58;1.40;;;;;;;8.74;61.75;99166.72;5024855;28;20389;-94
2021/05/26 01:49:10;;;;;;;6.82;2.17;;;;;;;8.43;62.69;99138.84;5028280;28;20042;-93
2021/05/26 01:51:36;;;;;;;4.53;1.90;;;;;;;8.31;63.37;99133.69;5026351;28;20391;-94
2021/05/26 01:54:03;;;;;;;1.95;1.40;;;;;;;8.23;64.03;99151.44;5029092;28;20137;-94
2021/05/26 01:56:31;;;;;;;3.70;1.83;;;;;;;8.10;62.81;99134.78;5031965;28;20049;-93
2021/05/26 01:58:58;;;;;;;6.30;1.70;;;;;;;8.14;63.01;99146.25;5029731;28;20376;-93
2021/05/26 02:01:25;;;;;;;3.75;1.75;;;;;;;8.21;64.25;99154.09;5027402;28;20045;-93
2021/05/26 02:03:52;;;;;;;4.18;1.70;;;;;;;8.05;63.43;99135.75;5027276;28;20107;-93
2021/05/26 02:06:19;;;;;;;3.25;1.63;;;;;;;7.95;64.43;99135.84;5029906;28;20175;-94
2021/05/26 02:08:48;;;;;;;3.03;1.40;;;;;;;8.08;63.52;99154.25;5028675;28;20045;-92
2021/05/26 02:14:16;;;;;;;5.75;1.90;;;;;;;7.97;63.88;99155.25;5124338;27;20366;-93
2021/05/26 02:16:41;;;;;;;;;;;;;;;7.98;64.96;99157.00;5085169;28;20056;-92
2021/05/26 02:19:07;;;;;;;3.22;1.60;;;;;;;7.96;63.85;99153.50;5090769;28;19924;-93
2021/05/26 02:21:33;;;;;;;4.13;1.80;;;;;;;7.88;63.30;99155.34;5090886;28;20036;-92
2021/05/26 02:23:59;;;;;;;3.40;1.80;;;;;;;7.83;63.03;99146.56;5091600;28;20406;-93
2021/05/26 02:26:25;;;;;;;2.60;1.60;;;;;;;7.89;63.11;99132.38;5090734;28;20056;-93
2021/05/26 02:28:51;;;;;;;5.55;1.70;;;;;;;7.93;65.18;99148.22;5090327;28;20454;-93
2021/05/26 02:31:18;;;;;;;4.43;1.63;;;;;;;7.86;63.53;99141.22;5089327;28;20118;-92
2021/05/26 02:33:44;;;;;;;3.60;1.70;;;;;;;7.84;64.58;99142.16;5091033;28;20091;-92
2021/05/26 02:36:09;;;;;;;6.25;1.80;;;;;;;7.78;64.31;99128.06;5090512;28;20036;-93
2021/05/26 02:38:35;;;;;;;4.38;1.63;;;;;;;7.94;65.40;99149.13;5089963;28;20032;-93
2021/05/26 02:41:01;;;;;;;2.85;1.63;;;;;;;8.07;65.49;99157.78;5090449;28;20441;-94
2021/05/26 02:43:27;;;;;;;7.72;2.00;;;;;;;7.91;64.10;99135.88;5091039;28;20040;-92
2021/05/26 02:45:53;;;;;;;1.95;1.50;;;;;;;7.94;64.56;99138.53;5089355;28;20846;-94
2021/05/26 02:48:20;;;;;;;3.05;1.67;;;;;;;7.77;64.60;99125.44;5090503;28;20123;-93
2021/05/26 02:50:46;;;;;;;3.10;1.80;;;;;;;7.68;66.80;99113.19;5091854;28;20036;-92
2021/05/26 02:53:13;;;;;;;3.50;1.80;;;;;;;7.75;65.79;99111.34;5091760;28;20032;-93
2021/05/26 02:55:38;;;;;;;4.95;1.63;;;;;;;7.69;65.65;99120.22;5092249;28;20123;-92
2021/05/26 02:58:04;;;;;;;4.85;1.92;;;;;;;7.50;66.20;99122.16;5091852;28;20064;-92
2021/05/26 03:00:30;;;;;;;3.80;1.80;;;;;;;7.37;66.37;99104.63;5090043;28;20040;-90
2021/05/26 03:02:57;;;;;;;5.78;3.30;;;;;;;7.38;66.55;99098.47;5090570;28;20079;-91
2021/05/26 03:05:24;;;;;;;2.97;1.55;;;;;;;7.46;67.19;99120.47;5091728;28;20132;-93
2021/05/26 03:07:50;;;;;;;3.65;1.70;;;;;;;7.34;66.59;99109.97;5090273;28;20064;-93
2021/05/26 03:10:17;;;;;;;9.23;1.80;;;;;;;7.31;66.79;99110.88;5090087;28;20513;-93
2021/05/26 03:12:43;;;;;;;3.22;1.48;;;;;;;7.39;67.41;99124.03;5089475;28;20552;-94
2021/05/26 03:15:12;;;;;;;4.82;1.50;;;;;;;7.44;67.21;99138.09;5088948;28;20055;-92
2021/05/26 03:17:38;;;;;;;4.57;1.50;;;;;;;7.23;67.25;99104.75;5088959;28;20396;-92
2021/05/26 03:20:05;;;;;;;4.95;1.58;;;;;;;7.17;67.26;99112.75;5091502;28;20276;-94
2021/05/26 03:22:33;;;;;;;4.93;2.15;;;;;;;7.19;67.38;99119.78;5091739;28;20038;-93
2021/05/26 03:24:59;;;;;;;5.88;1.48;;;;;;;7.16;67.90;99116.28;5081750;28;20053;-94
2021/05/26 03:27:33;;;;;;;3.67;1.85;;;;;;;7.21;68.07;99125.06;5076535;28;20355;-93
2021/05/26 03:29:59;;;;;;;3.92;1.63;;;;;;;7.27;68.30;99125.00;5076506;28;20539;-92
2021/05/26 03:32:26;;;;;;;4.75;1.80;;;;;;;7.24;68.53;99116.22;5075985;28;20040;-92
2021/05/26 03:34:52;;;;;;;5.70;1.85;;;;;;;7.32;68.83;99140.84;5076016;28;20735;-93
2021/05/26 03:37:18;;;;;;;5.13;2.45;;;;;;;7.30;69.24;99146.13;5076654;28;20037;-94
2021/05/26 03:39:45;;;;;;;5.55;1.98;;;;;;;7.09;69.51;99135.72;5076197;28;20047;-91
2021/05/26 03:42:11;;;;;;;7.88;2.10;;;;;;;7.19;69.86;99143.56;5076170;28;20393;-91
2021/05/26 03:44:37;;;;;;;4.88;1.70;;;;;;;7.13;70.06;99138.31;5075626;28;20051;-94
2021/05/26 03:47:03;;;;;;;5.70;1.90;;;;;;;7.15;70.34;99151.53;5075253;28;20037;-94
2021/05/26 03:49:29;;;;;;;4.57;2.00;;;;;;;7.26;69.28;99132.94;5077643;28;20036;-94
2021/05/26 03:51:55;;;;;;;5.93;1.73;;;;;;;7.35;69.28;99127.59;5076868;28;20036;-92
2021/05/26 03:54:20;;;;;;;5.55;2.00;;;;;;;7.59;68.58;99145.91;5077358;28;20138;-93
2021/05/26 03:56:47;;;;;;;4.28;1.90;;;;;;;7.48;69.18;99134.56;5075434;28;20127;-93
2021/05/26 03:59:13;;;;;;;5.10;2.33;;;;;;;7.36;69.15;99122.28;5076188;28;20124;-94
2021/05/26 04:01:39;;;;;;;7.00;2.42;;;;;;;7.45;68.96;99134.56;5075011;28;20040;-93
2021/05/26 04:04:05;;;;;;;4.95;1.90;;;;;;;7.39;69.05;99134.59;5075615;28;20151;-93
2021/05/26 04:06:33;;;;;;;4.97;2.00;;;;;;;7.33;69.75;99130.25;5075298;28;20036;-92
2021/05/26 04:08:59;;;;;;;8.70;2.10;;;;;;;7.21;70.01;99127.72;5075187;28;20044;-94
2021/05/26 04:11:25;;;;;;;6.07;1.83;;;;;;;7.34;70.52;99152.28;5075015;28;20033;-92
2021/05/26 04:13:52;;;;;;;6.90;2.08;;;;;;;7.20;70.08;99125.97;5075209;28;20055;-93
2021/05/26 04:16:18;;;;;;;7.05;2.00;;;;;;;7.40;70.48;99152.25;5074328;28;20045;-91
2021/05/26 04:18:43;;;;;;;4.88;1.80;;;;;;;7.39;70.35;99146.09;5075623;28;20123;-92
2021/05/26 04:21:09;;;;;;;2.53;1.77;;;;;;;7.19;70.41;99117.13;5075164;28;20040;-93
2021/05/26 04:23:35;;;;;;;4.47;1.85;;;;;;;7.25;71.20;99124.16;5076852;28;20037;-92
2021/05/26 04:26:02;;;;;;;3.95;2.00;;;;;;;7.24;71.02;99129.44;5077207;28;20032;-92
2021/05/26 04:28:28;;;;;;;4.78;1.90;;;;;;;7.44;70.88;99146.06;5077162;28;20617;-93
2021/05/26 04:30:55;;;;;;;2.92;1.88;;;;;;;7.37;71.09;99139.03;5075661;28;20037;-93
2021/05/26 04:33:21;;;;;;;5.93;1.80;;;;;;;7.38;70.94;99138.16;5075481;28;20476;-93
2021/05/26 04:35:47;;;;;;;5.25;2.17;;;;;;;7.31;71.22;99132.03;5074617;28;20124;-94
2021/05/26 04:38:13;;;;;;;4.97;2.00;;;;;;;7.39;71.76;99151.38;5075675;28;20135;-92
2021/05/26 04:40:40;;;;;;;5.38;2.13;;;;;;;7.51;71.64;99162.75;5073671;28;20494;-93
2021/05/26 04:43:05;;;;;;;6.75;1.98;;;;;;;7.60;71.63;99150.28;5076143;28;20036;-91
2021/05/26 04:45:31;;;;;;;4.97;1.80;;;;;;;7.71;71.25;99162.56;5074832;28;20444;-93
2021/05/26 04:47:59;;;;;;;2.63;1.70;;;;;;;7.84;70.73;99163.34;5075643;28;21087;-92
2021/05/26 04:50:25;;;;;;;3.88;1.98;;;;;;;7.86;71.22;99164.19;5075966;28;20398;-94
2021/05/26 04:52:51;;;;;;;4.90;2.00;;;;;;;7.91;70.03;99163.25;5076391;28;20043;-93
2021/05/26 04:55:17;;;;;;;4.72;2.03;;;;;;;7.98;69.69;99146.41;5075140;28;20129;-92
2021/05/26 04:57:43;;;;;;;6.07;2.30;;;;;;;8.15;70.17;99167.41;5072079;28;20040;-93
2021/05/26 05:00:10;;;;;;;4.00;1.73;;;;;;;8.50;68.98;99155.56;5079397;28;20063;-90
2021/05/26 05:02:35;;;;;;;6.28;1.85;;;;;;;9.58;65.39;99173.44;5075392;28;20033;-92
2021/05/26 05:05:03;;;;;;;4.60;1.98;;;;;;;10.44;61.40;99155.94;5075828;28;20119;-92
2021/05/26 05:07:29;;;;;;;4.90;2.00;;;;;;;11.15;58.82;99127.81;5076349;28;20048;-93
2021/05/26 05:09:55;;;;;;;6.22;2.08;;;;;;;11.81;55.91;99134.13;5076679;28;20141;-92
2021/05/26 05:12:21;;;;;;;4.60;2.10;;;;;;;12.12;54.20;99139.56;5075984;28;20131;-94
2021/05/26 05:14:47;;;;;;;6.15;2.15;;;;;;;12.37;53.63;99149.53;5078025;28;20098;-93
2021/05/26 05:17:13;;;;;;;6.03;2.28;;;;;;;11.80;55.06;99136.84;5076271;28;20045;-93
2021/05/26 05:19:39;;;;;;;3.92;2.20;;;;;;;11.64;55.27;99128.38;5077648;28;20040;-94
2021/05/26 05:22:06;;;;;;;6.35;2.33;;;;;;;11.58;55.75;99140.06;5077320;28;20048;-93
2021/05/26 05:24:34;;;;;;;7.13;2.05;;;;;;;11.67;55.35;99133.63;5081650;28;20056;-93
2021/05/26 05:27:00;;;;;;;9.40;2.35;;;;;;;12.13;54.20;99132.44;5077177;28;20448;-92
2021/05/26 05:29:26;;;;;;;4.30;1.98;;;;;;;12.70;52.53;99129.00;5078234;28;20040;-93
2021/05/26 05:31:52;;;;;;;4.68;1.70;;;;;;;13.13;51.08;99110.78;5078270;28;20047;-94
2021/05/26 05:34:18;;;;;;;5.38;1.90;;;;;;;13.20;50.55;99107.00;5078481;28;20048;-94
2021/05/26 05:36:44;;;;;;;7.65;1.90;;;;;;;13.52;49.60;99137.16;5075564;28;20439;-93
2021/05/26 05:39:11;;;;;;;5.70;1.95;;;;;;;13.40;49.76;99130.41;5076278;28;20097;-93
2021/05/26 05:41:37;;;;;;;4.97;1.80;;;;;;;13.52;49.92;99115.78;5076969;28;20048;-93
2021/05/26 05:44:04;;;;;;;4.97;2.00;;;;;;;14.05;48.42;99118.41;5070754;28;20124;-94
2021/05/26 05:46:30;;;;;;;5.45;2.40;;;;;;;14.33;48.10;99134.34;5076393;28;20036;-94
2021/05/26 05:48:56;;;;;;;6.72;1.95;;;;;;;14.12;49.03;99116.41;5076011;28;20044;-95
2021/05/26 05:51:22;;;;;;;4.90;1.65;;;;;;;14.26;47.34;99126.59;5076185;28;20521;-94
2021/05/26 05:53:47;;;;;;;6.90;2.63;;;;;;;13.66;49.47;99126.91;5076312;28;20041;-93
2021/05/26 05:56:14;;;;;;;5.10;2.20;;;;;;;13.58;49.51;99118.25;5074590;28;20123;-94
2021/05/26 05:58:40;;;;;;;5.07;1.80;;;;;;;13.67;49.95;99146.47;5074882;28;20041;-94
2021/05/26 06:01:06;;;;;;;4.32;1.80;;;;;;;14.00;48.55;99127.50;5072761;28;20041;-95
2021/05/26 06:03:32;;;;;;;4.28;1.92;;;;;;;14.10;48.17;99137.84;5074243;28;20090;-94
2021/05/26 06:05:58;;;;;;;5.15;1.95;;;;;;;14.18;48.47;99125.06;5077424;28;20047;-93
2021/05/26 06:08:24;;;;;;;5.88;2.10;;;;;;;14.25;47.88;99135.53;5075872;28;20098;-94
2021/05/26 06:10:50;;;;;;;5.07;2.10;;;;;;;14.32;47.17;99137.06;5072417;28;20044;-93
2021/05/26 06:13:17;;;;;;;5.30;1.92;;;;;;;14.44;46.35;99130.38;5076138;28;20109;-95
2021/05/26 06:15:43;;;;;;;8.30;2.10;;;;;;;14.13;46.49;99132.38;5075837;28;20049;-93
2021/05/26 06:18:10;;;;;;;5.65;2.00;;;;;;;14.25;47.91;99146.22;5076528;28;20383;-93
2021/05/26 06:20:36;;;;;;;6.82;2.22;;;;;;;14.31;46.67;99129.94;5078535;28;20041;-92
2021/05/26 06:23:02;;;;;;;5.20;2.13;;;;;;;13.77;48.41;99150.59;5074470;28;20040;-93
2021/05/26 06:25:28;;;;;;;7.80;2.05;;;;;;;13.96;47.89;99118.72;5072135;28;20045;-93
2021/05/26 06:27:53;;;;;;;5.88;1.92;;;;;;;14.24;47.18;99140.00;5075527;28;20127;-93
2021/05/26 06:30:21;;;;;;;4.88;2.00;;;;;;;13.92;48.01;99111.72;5075840;28;20498;-91
2021/05/26 06:32:47;;;;;;;5.68;2.20;;;;;;;14.42;46.54;99126.88;5074967;28;20040;-92
2021/05/26 06:35:13;;;;;;;3.67;1.83;;;;;;;14.53;43.80;99124.66;5077411;28;20490;-94
2021/05/26 06:37:39;;;;;;;6.03;2.20;;;;;;;13.91;45.17;99121.56;5076475;28;20092;-94
2021/05/26 06:40:07;;;;;;;7.68;2.05;;;;;;;13.37;49.59;99129.66;5074477;28;20041;-94
2021/05/26 06:42:33;;;;;;;7.10;2.28;;;;;;;13.75;49.27;99136.41;5079090;28;20093;-94
2021/05/26 06:44:59;;;;;;;5.88;1.90;;;;;;;13.98;46.71;99139.13;5079802;28;20049;-94
2021/05/26 06:47:27;;;;;;;4.88;1.83;;;;;;;13.94;48.14;99133.94;5072712;28;20040;-93
2021/05/26 06:49:52;;;;;;;6.05;1.73;;;;;;;13.76;49.50;99130.13;5078620;28;20046;-93
2021/05/26 06:52:18;;;;;;;5.88;2.20;;;;;;;14.20;47.78;99143.72;5078367;28;20147;-94
2021/05/26 06:54:44;;;;;;;6.43;2.00;;;;;;;14.69;46.04;99135.72;5074530;28;20552;-93
2021/05/26 06:57:10;;;;;;;5.75;1.90;;;;;;;14.46;47.12;99120.50;5078091;28;20048;-94
2021/05/26 06:59:37;;;;;;;4.70;2.05;;;;;;;14.68;47.46;99115.22;5080927;28;20044;-93
2021/05/26 07:02:02;;;;;;;7.22;2.03;;;;;;;15.14;45.98;99146.47;5079318;28;20052;-93
2021/05/26 07:04:29;;;;;;;7.97;2.05;;;;;;;15.25;44.59;99118.38;5077630;28;20044;-94
2021/05/26 07:06:56;;;;;;;6.93;2.22;;;;;;;15.72;43.89;99131.63;5080068;28;20094;-93
2021/05/26 07:09:22;;;;;;;8.70;2.38;;;;;;;16.12;43.81;99127.25;5080246;28;20116;-92
2021/05/26 07:11:48;;;;;;;7.55;2.35;;;;;;;16.46;42.13;99126.63;5076970;28;20067;-93
2021/05/26 07:14:14;;;;;;;4.60;1.95;;;;;;;16.51;40.99;99112.97;5074852;28;20097;-92
2021/05/26 07:16:40;;;;;;;5.47;1.80;;;;;;;16.67;41.79;99114.00;5076979;28;20036;-90
2021/05/26 07:19:07;;;;;;;4.10;2.03;;;;;;;16.81;40.22;99118.78;5081174;28;20452;-93
2021/05/26 07:21:34;;;;;;;5.80;2.10;;;;;;;16.75;39.85;99111.81;5082091;28;20037;-92
2021/05/26 07:24:00;;;;;;;6.72;2.10;;;;;;;16.79;40.42;99123.31;5080058;28;20040;-91
2021/05/26 07:26:26;;;;;;;7.75;2.00;;;;;;;16.69;39.29;99096.00;5078445;28;20125;-93
2021/05/26 07:28:52;;;;;;;7.90;2.30;;;;;;;17.13;38.91;99117.25;5079539;28;20037;-94
2021/05/26 07:31:18;;;;;;;6.53;1.98;;;;;;;17.48;37.84;99119.13;5074837;28;20102;-94
2021/05/26 07:33:45;;;;;;;6.93;2.97;;;;;;;17.45;37.32;99101.34;5076218;28;20042;-94
2021/05/26 07:36:12;;;;;;;5.97;2.22;;;;;;;17.64;37.14;99093.22;5075967;28;20049;-96
2021/05/26 07:38:40;;;;;;;4.85;2.00;;;;;;;17.83;37.09;99102.13;5081254;28;20129;-96
2021/05/26 07:41:06;;;;;;;5.65;1.90;;;;;;;17.89;37.10;99090.19;5077131;28;20070;-94
2021/05/26 07:43:33;;;;;;;3.65;1.70;;;;;;;18.27;37.08;99101.59;5080072;28;20036;-94
2021/05/26 07:45:59;;;;;;;3.92;1.65;;;;;;;18.20;34.99;99099.34;5079457;28;20102;-94
2021/05/26 07:48:25;;;;;;;4.88;1.70;;;;;;;18.08;35.61;99103.53;5076549;28;20075;-92
2021/05/26 07:50:51;;;;;;;4.95;1.60;;;;;;;18.12;36.06;99086.25;5081636;28;20064;-93
2021/05/26 07:53:17;;;;;;;4.93;1.70;;;;;;;18.44;35.54;99089.94;5080306;28;20039;-93
2021/05/26 07:55:44;;;;;;;4.93;1.80;;;;;;;18.20;35.76;99102.88;5079253;28;20017;-95
2021/05/26 07:58:10;;;;;;;5.07;1.80;;;;;;;18.51;37.31;99090.47;5077622;28;20036;-93
2021/05/26 08:00:36;;;;;;;4.88;1.88;;;;;;;18.86;36.42;99096.63;5070119;28;20580;-93
2021/05/26 08:03:02;;;;;;;7.55;2.25;;;;;;;18.84;36.08;99087.75;5075239;28;20052;-93
2021/05/26 08:05:28;;;;;;;8.10;2.63;;;;;;;19.16;36.02;99090.47;5070984;28;20043;-92
2021/05/26 08:07:54;;;;;;;6.05;1.90;;;;;;;19.40;35.03;99076.53;5074241;28;20445;-95
2021/05/26 08:10:20;;;;;;;6.70;2.33;;;;;;;19.31;34.54;99066.28;5077969;28;20066;-94
2021/05/26 08:12:47;;;;;;;4.50;2.03;;;;;;;19.49;34.91;99084.06;5076800;28;20052;-93
2021/05/26 08:15:14;;;;;;;5.68;1.83;;;;;;;19.36;34.53;99086.63;5074192;28;20543;-94
2021/05/26 08:17:40;;;;;;;4.68;2.88;;;;;;;19.19;35.11;99075.94;5075622;28;20135;-93
2021/05/26 08:20:07;;;;;;;6.70;2.00;;;;;;;19.56;35.13;99089.97;5075793;28;20032;-93
2021/05/26 08:22:34;;;;;;;5.45;1.98;;;;;;;19.75;33.48;99085.25;5075467;28;20387;-92
2021/05/26 08:25:00;;;;;;;5.47;2.10;;;;;;;20.07;33.76;99093.25;5075447;28;20071;-93
2021/05/26 08:27:26;;;;;;;3.80;1.90;;;;;;;20.39;33.28;99085.00;5071710;28;20534;-93
2021/05/26 08:29:54;;;;;;;7.05;2.58;;;;;;;20.58;33.20;99077.53;5069418;28;20095;-94
2021/05/26 08:32:19;;;;;;;6.43;2.35;;;;;;;20.46;32.52;99068.31;5078723;28;20048;-94
2021/05/26 08:34:48;;;;;;;7.75;2.17;;;;;;;19.78;34.19;99062.63;5079364;28;20043;-95
2021/05/26 08:37:14;;;;;;;8.85;3.30;;;;;;;19.89;32.59;99061.03;5077730;28;20090;-92
2021/05/26 08:39:40;;;;;;;7.53;2.45;;;;;;;20.05;33.57;99062.78;5075499;28;20040;-91
2021/05/26 08:42:06;;;;;;;5.22;1.92;;;;;;;20.36;33.62;99077.94;5078285;28;20079;-94
2021/05/26 08:44:32;;;;;;;4.97;2.00;;;;;;;19.70;33.94;99073.88;5075185;28;20040;-93
2021/05/26 08:47:01;;;;;;;6.90;2.05;;;;;;;19.96;33.60;99066.06;5074521;28;20052;-93
2021/05/26 08:49:29;;;;;;;7.45;2.10;;;;;;;20.28;31.96;99064.94;5076331;28;20094;-93
2021/05/26 08:51:59;;;;;;;3.05;1.80;;;;;;;20.61;31.84;99062.94;5075889;28;20044;-93
2021/05/26 08:54:25;;;;;;;5.53;2.10;;;;;;;21.00;31.72;99074.88;5075258;28;20494;-95
2021/05/26 08:56:51;;;;;;;7.65;1.90;;;;;;;21.05;30.69;99059.19;5075403;28;20072;-94
2021/05/26 08:59:17;;;;;;;8.10;2.50;;;;;;;21.31;31.16;99074.56;5075413;28;20375;-92
2021/05/26 09:01:48;;;;;;;5.00;2.20;;;;;;;21.24;30.61;99064.28;5074751;28;20040;-92
2021/05/26 09:04:30;;;;;;;5.18;2.30;;;;;;;20.67;30.94;99074.22;5075210;28;20040;-93
2021/05/26 09:07:10;;;;;;;7.25;2.40;;;;;;;20.72;31.42;99063.13;5072614;28;20154;-91
2021/05/26 09:09:51;;;;;;;4.72;2.00;;;;;;;20.97;28.86;99061.53;5075181;28;20044;-92
2021/05/26 09:12:29;;;;;;;5.05;2.05;;;;;;;21.26;30.50;99075.84;5074009;28;20424;-93
2021/05/26 09:14:55;;;;;;;10.50;2.45;;;;;;;21.46;29.65;99067.31;5074481;28;20048;-94
2021/05/26 09:17:21;;;;;;;6.93;2.50;;;;;;;21.50;29.42;99066.13;5074872;28;20041;-92
2021/05/26 09:19:48;;;;;;;7.57;2.45;;;;;;;21.44;29.94;99042.19;5075154;28;20158;-94
2021/05/26 09:22:17;;;;;;;6.30;2.20;;;;;;;21.64;29.77;99042.66;5073253;28;20394;-92
2021/05/26 09:24:43;;;;;;;6.65;2.00;;;;;;;21.85;29.48;99053.88;5073216;28;20074;-92
2021/05/26 09:27:11;;;;;;;7.88;2.40;;;;;;;21.04;30.21;99052.94;5073434;28;20072;-92
2021/05/26 09:29:40;;;;;;;5.93;2.58;;;;;;;21.22;31.75;99058.09;5072647;28;20387;-92
2021/05/26 09:32:13;;;;;;;7.80;2.60;;;;;;;21.26;30.16;99048.81;5074044;28;20037;-93
2021/05/26 09:34:40;;;;;;;6.63;2.25;;;;;;;21.38;29.93;99033.59;5074805;28;20068;-93
2021/05/26 09:37:11;;;;;;;4.53;2.28;;;;;;;21.68;29.65;99050.47;5076997;28;20102;-92
2021/05/26 09:39:51;;;;;;;8.40;2.88;;;;;;;21.84;31.78;99060.25;5077304;28;20730;-93
2021/05/26 09:42:38;;;;;;;8.38;2.47;;;;;;;21.65;31.44;99049.84;5074793;28;20048;-93
2021/05/26 09:45:13;;;;;;;7.65;2.60;;;;;;;22.09;31.31;99054.00;5076298;28;20131;-94
2021/05/26 09:47:43;;;;;;;5.32;2.30;;;;;;;22.17;30.68;99023.69;5077855;28;20116;-94
2021/05/26 09:50:25;;;;;;;7.88;2.55;;;;;;;21.65;31.40;99015.50;5078303;28;20048;-93
2021/05/26 09:53:00;;;;;;;6.38;2.53;;;;;;;21.81;31.30;99017.16;5075724;28;20036;-93
2021/05/26 09:55:29;;;;;;;5.82;2.53;;;;;;;21.96;31.14;99037.75;5071531;28;20049;-90
2021/05/26 09:57:56;;;;;;;8.30;2.70;;;;;;;21.75;30.84;99029.25;5073527;28;20051;-92
2021/05/26 10:00:23;;;;;;;11.07;2.80;;;;;;;21.93;32.19;99019.88;5077470;28;20132;-92
2021/05/26 10:02:50;;;;;;;8.07;2.70;;;;;;;22.10;32.09;99010.56;5073946;28;20044;-90
2021/05/26 10:05:18;;;;;;;7.63;2.50;;;;;;;22.01;30.16;98999.50;5075504;28;20051;-92
2021/05/26 10:07:52;;;;;;;7.63;3.03;;;;;;;22.20;31.10;99004.50;5075911;28;20095;-92
2021/05/26 10:10:20;;;;;;;6.60;3.20;;;;;;;22.58;30.68;99030.72;5074850;28;20045;-93
2021/05/26 10:12:52;;;;;;;11.25;3.10;;;;;;;22.75;31.18;99016.81;5073021;28;20758;-92
2021/05/26 10:15:19;;;;;;;9.57;2.92;;;;;;;22.38;31.04;99008.66;5074892;28;20040;-92
2021/05/26 10:17:50;;;;;;;7.30;2.80;;;;;;;22.57;30.83;99002.75;5074502;28;20067;-92
2021/05/26 10:20:18;;;;;;;7.75;2.80;;;;;;;22.70;31.01;98991.88;5070417;28;20048;-90
2021/05/26 10:22:45;;;;;;;7.65;3.35;;;;;;;22.75;30.66;99016.81;5071069;28;20401;-92
2021/05/26 10:25:13;;;;;;;8.38;3.03;;;;;;;22.56;29.95;99010.00;5075792;28;20127;-92
2021/05/26 10:27:44;;;;;;;8.00;2.70;;;;;;;22.76;30.41;98995.00;5073689;28;20037;-91
2021/05/26 10:30:11;;;;;;;6.65;1.90;;;;;;;22.47;28.14;98990.84;5071594;28;20052;-92
2021/05/26 10:32:54;;;;;;;5.57;1.83;;;;;;;22.53;27.17;98982.25;5075317;28;20393;-93
2021/05/26 10:35:21;;;;;;;4.07;1.88;;;;;;;22.04;26.26;98996.59;5078119;28;20045;-92
2021/05/26 10:37:57;;;;;;;3.35;1.80;;;;;;;21.69;29.23;99006.22;5080206;28;20052;-91
2021/05/26 10:40:37;;;;;;;3.85;2.35;;;;;;;22.20;27.10;98989.09;5071748;28;20040;-94
2021/05/26 10:43:31;;;;;;;8.52;2.00;;;;;;;22.62;27.16;98995.16;5079250;28;20041;-92
2021/05/26 10:46:03;;;;;;;6.03;1.98;;;;;;;22.85;26.62;98988.03;5078672;28;20079;-93
2021/05/26 10:49:00;;;;;;;4.20;1.83;;;;;;;23.01;27.29;98986.91;5081317;28;20044;-92
2021/05/26 10:51:57;;;;;;;7.03;2.08;;;;;;;22.20;28.06;98977.41;5077812;28;20045;-91
2021/05/26 10:54:58;;;;;;;4.72;1.83;;;;;;;22.56;27.35;98965.78;5080826;28;20114;-93
2021/05/26 10:57:25;;;;;;;5.28;1.65;;;;;;;22.49;27.88;98987.06;5079604;28;20048;-92
2021/05/26 11:00:26;;;;;;;5.78;1.75;;;;;;;22.83;26.16;98983.69;5079414;28;20055;-93
2021/05/26 11:03:40;;;;;;;4.40;1.90;;;;;;;22.75;26.84;98978.84;5076746;28;20064;-93
2021/05/26 11:06:35;;;;;;;4.25;1.98;;;;;;;23.17;26.39;98968.50;5052619;28;20048;-94
2021/05/26 11:09:02;;;;;;;3.47;1.58;;;;;;;23.05;26.97;98962.19;5074033;28;20053;-93
2021/05/26 11:11:51;;;;;;;4.53;1.70;;;;;;;23.10;26.39;98951.84;5079073;28;20068;-93
2021/05/26 11:14:33;;;;;;;3.00;1.50;;;;;;;22.82;25.33;98931.31;5080432;28;20051;-94
2021/05/26 11:17:26;;;;;;;3.33;1.75;;;;;;;22.70;23.61;98943.94;5081381;28;20049;-93
2021/05/26 11:20:12;;;;;;;4.97;1.85;;;;;;;23.24;22.79;98952.63;5080211;28;20045;-94
2021/05/26 11:22:38;;;;;;;3.22;1.52;;;;;;;23.52;23.30;98943.22;5076765;28;20068;-94
2021/05/26 11:25:08;;;;;;;4.47;1.55;;;;;;;23.72;22.41;98933.50;5078532;28;20056;-92
2021/05/26 11:27:34;;;;;;;2.40;1.38;;;;;;;23.98;22.26;98928.75;5080619;28;20044;-92
2021/05/26 11:30:03;;;;;;;3.78;1.50;;;;;;;23.53;22.40;98917.78;5079952;28;20044;-93
2021/05/26 11:32:30;;;;;;;3.75;1.50;;;;;;;23.43;23.96;98912.22;5080512;28;20047;-91
2021/05/26 11:35:00;;;;;;;5.53;1.80;;;;;;;23.54;24.06;98904.13;5079310;28;20502;-93
2021/05/26 11:37:28;;;;;;;3.65;1.60;;;;;;;23.70;22.07;98922.78;5080696;28;20055;-94
2021/05/26 11:39:54;;;;;;;2.80;1.42;;;;;;;22.70;21.94;98914.09;5079447;28;20058;-94
2021/05/26 11:42:23;;;;;;;2.15;1.33;;;;;;;22.55;22.39;98915.25;5080333;28;20143;-94
2021/05/26 11:44:58;;;;;;;6.13;1.80;;;;;;;22.34;23.14;98909.59;5080352;28;20120;-94